createdAt,value
2016-11-25T00:00:02.282Z,0
2016-11-25T00:01:02.215Z,0
2016-11-25T00:02:02.197Z,0
2016-11-25T00:03:02.176Z,0
2016-11-25T00:04:02.782Z,0
2016-11-25T00:05:02.146Z,0
2016-11-25T00:06:02.114Z,0
2016-11-25T00:07:02.096Z,0
2016-11-25T00:08:02.081Z,0
2016-11-25T00:09:02.071Z,0
2016-11-25T00:10:02.079Z,0
2016-11-25T00:11:02.325Z,0
2016-11-25T00:12:02.002Z,0
2016-11-25T00:13:01.976Z,0
2016-11-25T00:14:02.271Z,0
2016-11-25T00:15:01.940Z,0
2016-11-25T00:16:01.912Z,0
2016-11-25T00:17:01.896Z,0
2016-11-25T00:18:01.877Z,0
2016-11-25T00:19:01.860Z,0
2016-11-25T00:20:01.839Z,0
2016-11-25T00:21:01.820Z,0
2016-11-25T00:22:01.797Z,0
2016-11-25T00:23:01.786Z,0
2016-11-25T00:24:02.106Z,0
2016-11-25T00:25:01.748Z,0
2016-11-25T00:26:01.737Z,0
2016-11-25T00:27:01.693Z,0
2016-11-25T00:28:01.670Z,0
2016-11-25T00:29:01.657Z,0
2016-11-25T00:30:01.633Z,0
2016-11-25T00:31:01.925Z,0
2016-11-25T00:32:01.591Z,0
2016-11-25T00:33:01.884Z,0
2016-11-25T00:34:01.562Z,0
2016-11-25T00:35:01.878Z,0
2016-11-25T00:36:01.515Z,0
2016-11-25T00:37:01.497Z,0
2016-11-25T00:38:01.472Z,0
2016-11-25T00:39:01.453Z,0
2016-11-25T00:40:01.427Z,0
2016-11-25T00:41:01.414Z,0
2016-11-25T00:42:01.425Z,0
2016-11-25T00:43:01.371Z,0
2016-11-25T00:44:01.351Z,0
2016-11-25T00:45:01.333Z,0
2016-11-25T00:46:01.314Z,0
2016-11-25T00:47:01.294Z,0
2016-11-25T00:48:01.266Z,0
2016-11-25T00:49:01.574Z,0
2016-11-25T00:50:01.228Z,0
2016-11-25T00:51:01.232Z,0
2016-11-25T00:52:01.200Z,0
2016-11-25T00:53:01.168Z,0
2016-11-25T00:54:01.472Z,0
2016-11-25T00:55:01.133Z,0
2016-11-25T00:56:01.109Z,0
2016-11-25T00:57:01.402Z,0
2016-11-25T00:58:01.379Z,0
2016-11-25T00:59:01.043Z,0
2016-11-25T01:00:01.028Z,0
2016-11-25T01:01:01.005Z,0
2016-11-25T01:02:00.996Z,0
2016-11-25T01:03:00.965Z,0
2016-11-25T01:04:00.954Z,0
2016-11-25T01:05:00.927Z,0
2016-11-25T01:06:01.215Z,0
2016-11-25T01:07:00.882Z,0
2016-11-25T01:08:00.864Z,0
2016-11-25T01:09:00.848Z,0
2016-11-25T01:10:01.144Z,0
2016-11-25T01:11:00.802Z,0
2016-11-25T01:12:00.778Z,0
2016-11-25T01:13:00.758Z,0
2016-11-25T01:14:00.741Z,0
2016-11-25T01:15:01.040Z,0
2016-11-25T01:16:01.013Z,0
2016-11-25T01:17:00.683Z,0
2016-11-25T01:18:00.663Z,0
2016-11-25T01:19:00.663Z,0
2016-11-25T01:20:00.620Z,0
2016-11-25T01:21:00.945Z,0
2016-11-25T01:22:00.895Z,0
2016-11-25T01:23:00.875Z,0
2016-11-25T01:24:00.877Z,0
2016-11-25T01:25:00.524Z,0
2016-11-25T01:26:00.506Z,0
2016-11-25T01:27:00.477Z,0
2016-11-25T01:28:00.461Z,0
2016-11-25T01:29:00.435Z,0
2016-11-25T01:30:00.407Z,0
2016-11-25T01:31:00.390Z,0
2016-11-25T01:32:00.372Z,0
2016-11-25T01:33:00.353Z,0
2016-11-25T01:34:00.333Z,0
2016-11-25T01:35:00.316Z,0
2016-11-25T01:36:00.293Z,0
2016-11-25T01:37:00.276Z,0
2016-11-25T01:38:00.557Z,0
2016-11-25T01:39:00.544Z,0
2016-11-25T01:40:00.210Z,0
2016-11-25T01:41:00.498Z,0
2016-11-25T01:42:00.164Z,0
2016-11-25T01:43:00.146Z,0
2016-11-25T01:44:00.126Z,0
2016-11-25T01:45:00.102Z,0
2016-11-25T01:46:00.135Z,0
2016-11-25T01:47:00.096Z,0
2016-11-25T01:48:00.242Z,0
2016-11-25T01:49:00.341Z,0
2016-11-25T01:50:00.004Z,0
2016-11-25T01:50:59.991Z,0
2016-11-25T01:51:59.992Z,0
2016-11-25T01:53:00.249Z,0
2016-11-25T01:53:59.923Z,0
2016-11-25T01:54:59.894Z,0
2016-11-25T01:55:59.881Z,0
2016-11-25T01:57:00.211Z,0
2016-11-25T01:57:59.843Z,0
2016-11-25T01:58:59.878Z,0
2016-11-25T02:00:00.121Z,0
2016-11-25T02:01:00.109Z,0
2016-11-25T02:01:59.794Z,0
2016-11-25T02:02:59.743Z,0
2016-11-25T02:03:59.722Z,0
2016-11-25T02:05:00.332Z,0
2016-11-25T02:05:59.995Z,0
2016-11-25T02:06:59.979Z,0
2016-11-25T02:07:59.640Z,0
2016-11-25T02:08:59.621Z,0
2016-11-25T02:09:59.599Z,0
2016-11-25T02:11:00.204Z,0
2016-11-25T02:11:59.557Z,0
2016-11-25T02:12:59.540Z,0
2016-11-25T02:13:59.516Z,0
2016-11-25T02:14:59.494Z,0
2016-11-25T02:15:59.471Z,0
2016-11-25T02:16:59.451Z,0
2016-11-25T02:17:59.434Z,0
2016-11-25T02:18:59.729Z,0
2016-11-25T02:19:59.428Z,0
2016-11-25T02:20:59.678Z,0
2016-11-25T02:21:59.674Z,0
2016-11-25T02:22:59.329Z,0
2016-11-25T02:23:59.614Z,0
2016-11-25T02:24:59.594Z,0
2016-11-25T02:25:59.264Z,0
2016-11-25T02:26:59.236Z,0
2016-11-25T02:27:59.230Z,0
2016-11-25T02:28:59.200Z,0
2016-11-25T02:29:59.496Z,0
2016-11-25T02:30:59.466Z,0
2016-11-25T02:31:59.767Z,0
2016-11-25T02:32:59.123Z,0
2016-11-25T02:33:59.095Z,0
2016-11-25T02:34:59.087Z,0
2016-11-25T02:35:59.065Z,0
2016-11-25T02:36:59.397Z,0
2016-11-25T02:37:59.009Z,0
2016-11-25T02:38:58.984Z,0
2016-11-25T02:39:59.285Z,0
2016-11-25T02:40:58.955Z,0
2016-11-25T02:41:58.928Z,0
2016-11-25T02:42:58.951Z,0
2016-11-25T02:43:59.202Z,0
2016-11-25T02:44:58.866Z,0
2016-11-25T02:45:59.187Z,0
2016-11-25T02:46:59.138Z,0
2016-11-25T02:47:58.805Z,0
2016-11-25T02:48:58.778Z,0
2016-11-25T02:49:58.805Z,0
2016-11-25T02:50:58.752Z,0
2016-11-25T02:51:59.042Z,0
2016-11-25T02:52:58.743Z,0
2016-11-25T02:53:58.678Z,0
2016-11-25T02:54:58.677Z,0
2016-11-25T02:55:58.959Z,0
2016-11-25T02:56:58.633Z,0
2016-11-25T02:57:58.590Z,0
2016-11-25T02:58:58.572Z,0
2016-11-25T02:59:58.552Z,0
2016-11-25T03:00:58.539Z,0
2016-11-25T03:01:58.509Z,0
2016-11-25T03:02:58.493Z,0
2016-11-25T03:03:58.548Z,0
2016-11-25T03:04:58.774Z,0
2016-11-25T03:05:58.750Z,0
2016-11-25T03:06:59.043Z,0
2016-11-25T03:07:58.702Z,0
2016-11-25T03:08:58.372Z,0
2016-11-25T03:09:58.347Z,0
2016-11-25T03:10:58.317Z,0
2016-11-25T03:11:58.300Z,0
2016-11-25T03:12:58.591Z,0
2016-11-25T03:13:58.261Z,0
2016-11-25T03:14:58.560Z,0
2016-11-25T03:15:58.216Z,0
2016-11-25T03:16:58.250Z,0
2016-11-25T03:17:58.484Z,0
2016-11-25T03:18:58.149Z,0
2016-11-25T03:19:58.126Z,0
2016-11-25T03:20:58.110Z,0
2016-11-25T03:21:58.086Z,0
2016-11-25T03:22:58.387Z,0
2016-11-25T03:23:58.361Z,0
2016-11-25T03:24:58.033Z,0
2016-11-25T03:25:58.323Z,0
2016-11-25T03:26:58.296Z,0
2016-11-25T03:27:58.281Z,0
2016-11-25T03:28:57.941Z,0
2016-11-25T03:29:57.931Z,0
2016-11-25T03:30:57.908Z,0
2016-11-25T03:31:57.876Z,0
2016-11-25T03:32:57.859Z,0
2016-11-25T03:33:58.160Z,0
2016-11-25T03:34:57.843Z,0
2016-11-25T03:35:58.108Z,0
2016-11-25T03:36:57.770Z,0
2016-11-25T03:37:57.754Z,0
2016-11-25T03:38:58.047Z,0
2016-11-25T03:39:58.049Z,0
2016-11-25T03:40:57.688Z,0
2016-11-25T03:41:57.671Z,0
2016-11-25T03:42:57.647Z,0
2016-11-25T03:43:57.670Z,0
2016-11-25T03:44:57.602Z,0
2016-11-25T03:45:57.581Z,0
2016-11-25T03:46:57.878Z,0
2016-11-25T03:47:57.736Z,0
2016-11-25T03:48:57.831Z,0
2016-11-25T03:49:57.500Z,0
2016-11-25T03:50:57.489Z,0
2016-11-25T03:51:57.454Z,0
2016-11-25T03:52:57.435Z,0
2016-11-25T03:53:57.419Z,0
2016-11-25T03:54:57.393Z,0
2016-11-25T03:55:57.406Z,0
2016-11-25T03:56:57.347Z,0
2016-11-25T03:57:57.642Z,0
2016-11-25T03:58:57.624Z,0
2016-11-25T03:59:57.285Z,0
2016-11-25T04:00:57.282Z,0
2016-11-25T04:01:57.257Z,0
2016-11-25T04:02:57.232Z,0
2016-11-25T04:03:57.197Z,0
2016-11-25T04:04:57.174Z,0
2016-11-25T04:05:57.779Z,0
2016-11-25T04:06:57.132Z,0
2016-11-25T04:07:57.123Z,0
2016-11-25T04:08:57.419Z,0
2016-11-25T04:09:57.082Z,0
2016-11-25T04:10:57.074Z,0
2016-11-25T04:11:57.040Z,0
2016-11-25T04:12:57.004Z,0
2016-11-25T04:13:56.995Z,0
2016-11-25T04:14:56.970Z,0
2016-11-25T04:15:56.962Z,0
2016-11-25T04:16:56.920Z,0
2016-11-25T04:17:57.213Z,0
2016-11-25T04:18:56.887Z,0
2016-11-25T04:19:56.852Z,0
2016-11-25T04:20:57.158Z,0
2016-11-25T04:21:57.130Z,0
2016-11-25T04:22:57.128Z,0
2016-11-25T04:23:56.769Z,0
2016-11-25T04:24:57.075Z,0
2016-11-25T04:25:56.735Z,0
2016-11-25T04:26:56.702Z,0
2016-11-25T04:27:56.680Z,0
2016-11-25T04:28:56.668Z,0
2016-11-25T04:29:56.640Z,0
2016-11-25T04:30:56.622Z,0
2016-11-25T04:31:56.950Z,0
2016-11-25T04:32:56.595Z,0
2016-11-25T04:33:56.591Z,0
2016-11-25T04:34:56.849Z,0
2016-11-25T04:35:56.520Z,0
2016-11-25T04:36:56.490Z,0
2016-11-25T04:37:56.470Z,0
2016-11-25T04:38:56.450Z,0
2016-11-25T04:39:56.435Z,0
2016-11-25T04:40:56.399Z,0
2016-11-25T04:41:56.376Z,0
2016-11-25T04:42:56.999Z,0
2016-11-25T04:43:56.347Z,0
2016-11-25T04:44:56.350Z,0
2016-11-25T04:45:56.311Z,0
2016-11-25T04:46:56.283Z,0
2016-11-25T04:47:56.254Z,0
2016-11-25T04:48:56.232Z,0
2016-11-25T04:49:56.262Z,0
2016-11-25T04:50:56.504Z,0
2016-11-25T04:51:56.582Z,0
2016-11-25T04:52:56.151Z,0
2016-11-25T04:53:56.135Z,0
2016-11-25T04:54:56.424Z,0
2016-11-25T04:55:56.085Z,0
2016-11-25T04:56:56.063Z,0
2016-11-25T04:57:56.038Z,0
2016-11-25T04:58:56.018Z,0
2016-11-25T04:59:56.029Z,0
2016-11-25T05:00:56.293Z,0
2016-11-25T05:01:56.265Z,0
2016-11-25T05:02:55.930Z,0
2016-11-25T05:03:55.911Z,0
2016-11-25T05:04:56.199Z,0
2016-11-25T05:05:56.214Z,0
2016-11-25T05:06:55.844Z,0
2016-11-25T05:07:55.824Z,0
2016-11-25T05:08:55.792Z,0
2016-11-25T05:09:55.777Z,0
2016-11-25T05:10:55.756Z,0
2016-11-25T05:11:55.731Z,0
2016-11-25T05:12:56.039Z,0
2016-11-25T05:13:56.064Z,0
2016-11-25T05:14:55.670Z,0
2016-11-25T05:15:55.647Z,0
2016-11-25T05:16:55.619Z,0
2016-11-25T05:17:55.920Z,0
2016-11-25T05:18:55.598Z,0
2016-11-25T05:19:55.577Z,0
2016-11-25T05:20:55.566Z,0
2016-11-25T05:21:55.522Z,0
2016-11-25T05:22:55.493Z,0
2016-11-25T05:23:55.509Z,0
2016-11-25T05:24:55.454Z,0
2016-11-25T05:25:55.435Z,0
2016-11-25T05:26:55.725Z,0
2016-11-25T05:27:55.698Z,0
2016-11-25T05:28:55.677Z,0
2016-11-25T05:29:55.656Z,0
2016-11-25T05:30:55.323Z,0
2016-11-25T05:31:55.302Z,0
2016-11-25T05:32:55.594Z,0
2016-11-25T05:33:55.257Z,0
2016-11-25T05:34:55.229Z,0
2016-11-25T05:35:55.223Z,0
2016-11-25T05:36:55.507Z,0
2016-11-25T05:37:55.796Z,0
2016-11-25T05:38:55.146Z,0
2016-11-25T05:39:55.799Z,0
2016-11-25T05:40:55.431Z,0
2016-11-25T05:41:55.090Z,0
2016-11-25T05:42:55.076Z,0
2016-11-25T05:43:55.372Z,0
2016-11-25T05:44:55.020Z,0
2016-11-25T05:45:54.996Z,0
2016-11-25T05:46:55.320Z,0
2016-11-25T05:47:55.590Z,0
2016-11-25T05:48:54.938Z,0
2016-11-25T05:49:55.218Z,0
2016-11-25T05:50:54.882Z,0
2016-11-25T05:51:54.864Z,0
2016-11-25T05:52:54.837Z,0
2016-11-25T05:53:54.820Z,0
2016-11-25T05:54:54.797Z,0
2016-11-25T05:55:55.408Z,0
2016-11-25T05:56:55.071Z,0
2016-11-25T05:57:54.736Z,0
2016-11-25T05:58:55.030Z,0
2016-11-25T05:59:54.690Z,0
2016-11-25T06:00:54.664Z,0
2016-11-25T06:01:54.650Z,0
2016-11-25T06:02:54.620Z,0
2016-11-25T06:03:54.595Z,0
2016-11-25T06:04:54.649Z,0
2016-11-25T06:05:54.885Z,0
2016-11-25T06:06:54.537Z,0
2016-11-25T06:07:54.833Z,0
2016-11-25T06:08:54.490Z,0
2016-11-25T06:09:54.466Z,0
2016-11-25T06:10:54.767Z,0
2016-11-25T06:11:54.743Z,0
2016-11-25T06:12:54.404Z,0
2016-11-25T06:13:54.385Z,0
2016-11-25T06:14:54.704Z,0
2016-11-25T06:15:54.342Z,0
2016-11-25T06:16:54.309Z,0
2016-11-25T06:17:54.295Z,0
2016-11-25T06:18:54.274Z,0
2016-11-25T06:19:54.247Z,0
2016-11-25T06:20:54.227Z,0
2016-11-25T06:21:54.206Z,0
2016-11-25T06:22:54.177Z,0
2016-11-25T06:23:54.165Z,0
2016-11-25T06:24:54.459Z,0
2016-11-25T06:25:54.435Z,0
2016-11-25T06:26:54.414Z,0
2016-11-25T06:27:54.069Z,0
2016-11-25T06:28:54.716Z,0
2016-11-25T06:29:54.654Z,0
2016-11-25T06:30:54.009Z,0
2016-11-25T06:31:53.980Z,0
2016-11-25T06:32:53.959Z,0
2016-11-25T06:33:53.980Z,0
2016-11-25T06:34:53.913Z,0
2016-11-25T06:35:54.206Z,0
2016-11-25T06:36:53.879Z,0
2016-11-25T06:37:53.866Z,0
2016-11-25T06:38:53.839Z,0
2016-11-25T06:39:54.126Z,0
2016-11-25T06:40:54.101Z,0
2016-11-25T06:41:53.759Z,0
2016-11-25T06:42:53.738Z,0
2016-11-25T06:43:53.718Z,0
2016-11-25T06:44:53.734Z,0
2016-11-25T06:45:53.676Z,0
2016-11-25T06:46:53.656Z,0
2016-11-25T06:47:54.262Z,0
2016-11-25T06:48:53.610Z,0
2016-11-25T06:49:53.609Z,0
2016-11-25T06:50:53.567Z,0
2016-11-25T06:51:53.540Z,0
2016-11-25T06:52:53.521Z,0
2016-11-25T06:53:53.499Z,0
2016-11-25T06:54:53.480Z,0
2016-11-25T06:55:54.085Z,0
2016-11-25T06:56:53.432Z,0
2016-11-25T06:57:53.496Z,0
2016-11-25T06:58:53.422Z,0
2016-11-25T06:59:53.367Z,5
2016-11-25T07:00:53.344Z,5
2016-11-25T07:01:53.973Z,5
2016-11-25T07:02:53.296Z,5
2016-11-25T07:03:53.288Z,5
2016-11-25T07:04:53.258Z,5
2016-11-25T07:05:53.235Z,5
2016-11-25T07:06:53.220Z,5
2016-11-25T07:07:53.187Z,5
2016-11-25T07:08:53.175Z,10
2016-11-25T07:09:53.472Z,10
2016-11-25T07:10:53.128Z,10
2016-11-25T07:11:53.100Z,10
2016-11-25T07:12:53.083Z,10
2016-11-25T07:13:53.052Z,10
2016-11-25T07:14:53.029Z,15
2016-11-25T07:15:53.014Z,15
2016-11-25T07:16:52.997Z,15
2016-11-25T07:17:52.996Z,15
2016-11-25T07:18:52.955Z,15
2016-11-25T07:19:52.954Z,15
2016-11-25T07:20:52.899Z,20
2016-11-25T07:21:52.883Z,20
2016-11-25T07:22:52.857Z,20
2016-11-25T07:23:52.878Z,20
2016-11-25T07:24:53.136Z,20
2016-11-25T07:25:53.102Z,20
2016-11-25T07:26:52.799Z,20
2016-11-25T07:27:52.748Z,25
2016-11-25T07:28:53.057Z,25
2016-11-25T07:29:52.706Z,25
2016-11-25T07:30:53.004Z,25
2016-11-25T07:31:52.660Z,25
2016-11-25T07:32:53.005Z,25
2016-11-25T07:33:52.621Z,25
2016-11-25T07:34:52.596Z,30
2016-11-25T07:35:52.596Z,30
2016-11-25T07:36:52.551Z,30
2016-11-25T07:37:52.535Z,30
2016-11-25T07:38:52.819Z,30
2016-11-25T07:39:52.493Z,30
2016-11-25T07:40:52.463Z,30
2016-11-25T07:41:52.450Z,35
2016-11-25T07:42:52.736Z,35
2016-11-25T07:43:52.414Z,35
2016-11-25T07:44:52.381Z,35
2016-11-25T07:45:52.374Z,35
2016-11-25T07:46:52.340Z,35
2016-11-25T07:47:52.315Z,35
2016-11-25T07:48:52.494Z,40
2016-11-25T07:49:52.581Z,40
2016-11-25T07:50:52.583Z,40
2016-11-25T07:51:52.223Z,40
2016-11-25T07:52:52.208Z,40
2016-11-25T07:53:52.509Z,40
2016-11-25T07:54:52.475Z,45
2016-11-25T07:55:52.460Z,45
2016-11-25T07:56:52.436Z,45
2016-11-25T07:57:52.093Z,45
2016-11-25T07:58:52.072Z,45
2016-11-25T07:59:52.055Z,50
2016-11-25T08:00:52.023Z,50
2016-11-25T08:01:52.008Z,50
2016-11-25T08:02:51.983Z,50
2016-11-25T08:03:51.964Z,50
2016-11-25T08:04:52.264Z,55
2016-11-25T08:05:51.919Z,55
2016-11-25T08:06:51.897Z,55
2016-11-25T08:07:51.878Z,55
2016-11-25T08:08:52.186Z,55
2016-11-25T08:09:51.829Z,55
2016-11-25T08:10:51.815Z,60
2016-11-25T08:11:51.789Z,60
2016-11-25T08:12:51.780Z,60
2016-11-25T08:13:52.060Z,60
2016-11-25T08:14:51.726Z,65
2016-11-25T08:15:51.710Z,65
2016-11-25T08:16:51.682Z,65
2016-11-25T08:17:51.663Z,65
2016-11-25T08:18:51.650Z,65
2016-11-25T08:19:51.615Z,70
2016-11-25T08:20:51.614Z,70
2016-11-25T08:21:51.888Z,70
2016-11-25T08:22:51.549Z,70
2016-11-25T08:23:51.530Z,75
2016-11-25T08:24:51.515Z,75
2016-11-25T08:25:51.493Z,75
2016-11-25T08:26:51.786Z,75
2016-11-25T08:27:51.455Z,75
2016-11-25T08:28:51.423Z,80
2016-11-25T08:29:51.719Z,80
2016-11-25T08:30:51.699Z,80
2016-11-25T08:31:51.359Z,80
2016-11-25T08:32:51.349Z,80
2016-11-25T08:33:51.631Z,80
2016-11-25T08:34:51.648Z,80
2016-11-25T08:35:51.590Z,85
2016-11-25T08:36:51.259Z,85
2016-11-25T08:37:51.240Z,85
2016-11-25T08:38:51.215Z,85
2016-11-25T08:39:51.191Z,85
2016-11-25T08:40:51.177Z,85
2016-11-25T08:41:51.166Z,85
2016-11-25T08:42:51.466Z,85
2016-11-25T08:43:51.441Z,85
2016-11-25T08:44:51.719Z,85
2016-11-25T08:45:51.064Z,85
2016-11-25T08:46:51.047Z,90
2016-11-25T08:47:51.335Z,90
2016-11-25T08:48:51.008Z,90
2016-11-25T08:49:51.298Z,90
2016-11-25T08:50:50.970Z,85
2016-11-25T08:51:51.338Z,85
2016-11-25T08:52:50.924Z,90
2016-11-25T08:53:50.907Z,90
2016-11-25T08:54:50.886Z,90
2016-11-25T08:56:02.272Z,90
2016-11-25T08:56:50.891Z,90
2016-11-25T08:57:51.137Z,90
2016-11-25T08:58:51.115Z,90
2016-11-25T08:59:51.100Z,95
2016-11-25T09:00:50.756Z,95
2016-11-25T09:01:50.763Z,95
2016-11-25T09:02:50.720Z,95
2016-11-25T09:03:50.695Z,95
2016-11-25T09:04:51.000Z,95
2016-11-25T09:05:50.658Z,95
2016-11-25T09:06:50.632Z,95
2016-11-25T09:07:50.617Z,95
2016-11-25T09:08:50.937Z,100
2016-11-25T09:09:50.575Z,100
2016-11-25T09:10:50.548Z,100
2016-11-25T09:11:50.532Z,100
2016-11-25T09:12:50.516Z,100
2016-11-25T09:13:50.501Z,105
2016-11-25T09:14:50.484Z,115
2016-11-25T09:15:50.765Z,115
2016-11-25T09:16:50.429Z,110
2016-11-25T09:17:50.422Z,115
2016-11-25T09:18:50.395Z,115
2016-11-25T09:19:50.367Z,115
2016-11-25T09:20:50.368Z,115
2016-11-25T09:21:50.338Z,135
2016-11-25T09:22:50.346Z,150
2016-11-25T09:23:50.601Z,135
2016-11-25T09:24:50.327Z,155
2016-11-25T09:25:50.255Z,195
2016-11-25T09:26:50.226Z,240
2016-11-25T09:27:50.584Z,260
2016-11-25T09:28:50.520Z,215
2016-11-25T09:29:50.176Z,135
2016-11-25T09:30:50.508Z,125
2016-11-25T09:31:50.181Z,125
2016-11-25T09:32:50.119Z,120
2016-11-25T09:33:50.142Z,115
2016-11-25T09:34:50.078Z,120
2016-11-25T09:35:50.079Z,115
2016-11-25T09:36:50.078Z,125
2016-11-25T09:37:50.035Z,150
2016-11-25T09:38:50.010Z,195
2016-11-25T09:39:49.984Z,205
2016-11-25T09:40:49.968Z,175
2016-11-25T09:41:49.950Z,150
2016-11-25T09:42:49.936Z,145
2016-11-25T09:43:49.918Z,150
2016-11-25T09:44:49.903Z,145
2016-11-25T09:45:49.879Z,175
2016-11-25T09:46:49.910Z,230
2016-11-25T09:47:49.847Z,260
2016-11-25T09:48:50.358Z,260
2016-11-25T09:49:49.830Z,310
2016-11-25T09:50:50.128Z,315
2016-11-25T09:51:50.424Z,250
2016-11-25T09:52:49.768Z,275
2016-11-25T09:53:49.747Z,270
2016-11-25T09:54:49.728Z,255
2016-11-25T09:55:49.714Z,260
2016-11-25T09:56:50.013Z,310
2016-11-25T09:57:49.677Z,380
2016-11-25T09:58:49.977Z,380
2016-11-25T09:59:49.656Z,370
2016-11-25T10:00:49.638Z,355
2016-11-25T10:01:49.621Z,315
2016-11-25T10:02:49.600Z,310
2016-11-25T10:03:49.906Z,335
2016-11-25T10:04:49.617Z,325
2016-11-25T10:05:49.563Z,345
2016-11-25T10:06:49.855Z,330
2016-11-25T10:07:49.547Z,250
2016-11-25T10:08:49.518Z,235
2016-11-25T10:09:49.839Z,315
2016-11-25T10:10:49.481Z,350
2016-11-25T10:11:49.496Z,395
2016-11-25T10:12:49.466Z,410
2016-11-25T10:13:49.759Z,410
2016-11-25T10:14:49.424Z,400
2016-11-25T10:15:49.419Z,385
2016-11-25T10:16:49.397Z,400
2016-11-25T10:17:49.702Z,360
2016-11-25T10:18:49.371Z,300
2016-11-25T10:19:49.355Z,280
2016-11-25T10:20:49.351Z,325
2016-11-25T10:21:49.332Z,390
2016-11-25T10:22:49.636Z,400
2016-11-25T10:23:49.304Z,365
2016-11-25T10:24:49.328Z,365
2016-11-25T10:25:49.280Z,345
2016-11-25T10:26:49.268Z,295
2016-11-25T10:27:49.275Z,300
2016-11-25T10:28:49.246Z,340
2016-11-25T10:29:49.234Z,395
2016-11-25T10:30:49.231Z,440
2016-11-25T10:31:49.206Z,455
2016-11-25T10:32:49.196Z,475
2016-11-25T10:33:49.185Z,410
2016-11-25T10:34:49.171Z,340
2016-11-25T10:35:49.473Z,365
2016-11-25T10:36:49.160Z,420
2016-11-25T10:37:49.139Z,445
2016-11-25T10:38:49.441Z,420
2016-11-25T10:39:49.438Z,420
2016-11-25T10:40:49.100Z,435
2016-11-25T10:41:49.149Z,490
2016-11-25T10:42:49.079Z,520
2016-11-25T10:43:49.116Z,515
2016-11-25T10:44:49.058Z,490
2016-11-25T10:45:49.039Z,465
2016-11-25T10:46:49.347Z,465
2016-11-25T10:47:49.021Z,440
2016-11-25T10:48:49.022Z,465
2016-11-25T10:49:48.996Z,440
2016-11-25T10:50:48.994Z,405
2016-11-25T10:51:48.977Z,415
2016-11-25T10:52:48.963Z,440
2016-11-25T10:53:49.005Z,440
2016-11-25T10:54:49.261Z,425
2016-11-25T10:55:48.942Z,420
2016-11-25T10:56:48.959Z,425
2016-11-25T10:57:48.924Z,440
2016-11-25T10:58:48.913Z,390
2016-11-25T10:59:48.905Z,395
2016-11-25T11:00:48.906Z,385
2016-11-25T11:01:48.880Z,335
2016-11-25T11:02:48.889Z,375
2016-11-25T11:03:48.883Z,400
2016-11-25T11:04:48.846Z,380
2016-11-25T11:05:48.829Z,350
2016-11-25T11:06:48.822Z,315
2016-11-25T11:07:48.831Z,360
2016-11-25T11:08:48.809Z,370
2016-11-25T11:09:48.791Z,390
2016-11-25T11:10:48.831Z,400
2016-11-25T11:11:48.767Z,410
2016-11-25T11:12:48.759Z,445
2016-11-25T11:13:48.749Z,460
2016-11-25T11:14:48.744Z,370
2016-11-25T11:15:49.112Z,290
2016-11-25T11:16:49.042Z,255
2016-11-25T11:17:48.758Z,275
2016-11-25T11:18:48.703Z,280
2016-11-25T11:19:48.690Z,215
2016-11-25T11:20:48.679Z,170
2016-11-25T11:21:48.985Z,155
2016-11-25T11:22:48.666Z,155
2016-11-25T11:23:48.961Z,155
2016-11-25T11:24:48.638Z,145
2016-11-25T11:25:49.001Z,140
2016-11-25T11:26:48.638Z,140
2016-11-25T11:27:48.605Z,135
2016-11-25T11:28:48.600Z,135
2016-11-25T11:29:48.581Z,135
2016-11-25T11:30:48.893Z,135
2016-11-25T11:31:48.871Z,135
2016-11-25T11:32:48.551Z,135
2016-11-25T11:33:48.849Z,130
2016-11-25T11:34:48.512Z,135
2016-11-25T11:35:48.541Z,135
2016-11-25T11:36:48.488Z,145
2016-11-25T11:37:48.507Z,140
2016-11-25T11:38:48.467Z,135
2016-11-25T11:39:48.765Z,135
2016-11-25T11:40:48.438Z,135
2016-11-25T11:41:48.450Z,140
2016-11-25T11:42:48.409Z,140
2016-11-25T11:43:48.706Z,140
2016-11-25T11:44:48.390Z,140
2016-11-25T11:45:48.360Z,145
2016-11-25T11:46:48.350Z,150
2016-11-25T11:47:48.368Z,155
2016-11-25T11:48:48.559Z,160
2016-11-25T11:49:48.314Z,165
2016-11-25T11:50:48.305Z,180
2016-11-25T11:51:48.294Z,190
2016-11-25T11:52:48.595Z,230
2016-11-25T11:53:48.273Z,245
2016-11-25T11:54:48.243Z,315
2016-11-25T11:55:48.242Z,405
2016-11-25T11:56:48.531Z,440
2016-11-25T11:57:48.203Z,505
2016-11-25T11:58:48.502Z,535
2016-11-25T11:59:48.488Z,530
2016-11-25T12:00:48.479Z,510
2016-11-25T12:01:48.148Z,505
2016-11-25T12:02:48.138Z,510
2016-11-25T12:03:48.136Z,500
2016-11-25T12:04:48.134Z,490
2016-11-25T12:05:48.422Z,490
2016-11-25T12:06:48.085Z,480
2016-11-25T12:07:48.909Z,470
2016-11-25T12:08:48.413Z,470
2016-11-25T12:09:48.070Z,470
2016-11-25T12:10:48.064Z,470
2016-11-25T12:11:48.072Z,465
2016-11-25T12:12:48.036Z,465
2016-11-25T12:13:48.338Z,460
2016-11-25T12:14:48.325Z,460
2016-11-25T12:15:48.321Z,465
2016-11-25T12:16:48.003Z,455
2016-11-25T12:17:48.635Z,455
2016-11-25T12:18:47.992Z,465
2016-11-25T12:19:47.977Z,455
2016-11-25T12:20:48.299Z,450
2016-11-25T12:21:47.982Z,475
2016-11-25T12:22:47.994Z,485
2016-11-25T12:23:47.950Z,470
2016-11-25T12:24:47.939Z,460
2016-11-25T12:25:47.947Z,460
2016-11-25T12:26:47.934Z,445
2016-11-25T12:27:47.962Z,435
2016-11-25T12:28:48.244Z,435
2016-11-25T12:29:48.227Z,440
2016-11-25T12:30:48.220Z,445
2016-11-25T12:31:47.928Z,430
2016-11-25T12:32:47.893Z,425
2016-11-25T12:33:47.891Z,415
2016-11-25T12:34:47.881Z,415
2016-11-25T12:35:47.872Z,405
2016-11-25T12:36:47.875Z,405
2016-11-25T12:37:47.882Z,415
2016-11-25T12:38:47.860Z,410
2016-11-25T12:39:48.178Z,405
2016-11-25T12:40:48.490Z,405
2016-11-25T12:41:47.840Z,405
2016-11-25T12:42:47.887Z,405
2016-11-25T12:43:47.838Z,400
2016-11-25T12:44:47.827Z,400
2016-11-25T12:45:48.138Z,385
2016-11-25T12:46:47.829Z,385
2016-11-25T12:47:47.915Z,385
2016-11-25T12:48:48.458Z,390
2016-11-25T12:49:47.837Z,390
2016-11-25T12:50:48.430Z,380
2016-11-25T12:51:47.797Z,345
2016-11-25T12:52:48.420Z,355
2016-11-25T12:53:47.788Z,360
2016-11-25T12:54:48.098Z,360
2016-11-25T12:55:47.769Z,350
2016-11-25T12:56:48.104Z,350
2016-11-25T12:57:47.812Z,355
2016-11-25T12:58:47.761Z,365
2016-11-25T12:59:47.756Z,360
2016-11-25T13:00:47.751Z,350
2016-11-25T13:01:47.743Z,350
2016-11-25T13:02:47.749Z,360
2016-11-25T13:03:47.736Z,350
2016-11-25T13:04:47.748Z,345
2016-11-25T13:05:48.354Z,345
2016-11-25T13:06:48.363Z,335
2016-11-25T13:07:47.723Z,335
2016-11-25T13:08:47.712Z,345
2016-11-25T13:09:48.025Z,335
2016-11-25T13:10:48.028Z,330
2016-11-25T13:11:48.023Z,325
2016-11-25T13:12:47.733Z,320
2016-11-25T13:13:47.720Z,320
2016-11-25T13:14:47.690Z,320
2016-11-25T13:15:47.685Z,315
2016-11-25T13:16:47.998Z,315
2016-11-25T13:17:47.669Z,310
2016-11-25T13:18:47.670Z,315
2016-11-25T13:19:47.671Z,305
2016-11-25T13:20:47.657Z,300
2016-11-25T13:21:47.972Z,295
2016-11-25T13:22:47.649Z,295
2016-11-25T13:23:47.650Z,290
2016-11-25T13:24:47.646Z,290
2016-11-25T13:25:47.955Z,285
2016-11-25T13:26:47.632Z,285
2016-11-25T13:27:47.636Z,285
2016-11-25T13:28:47.946Z,275
2016-11-25T13:29:47.665Z,270
2016-11-25T13:30:47.619Z,265
2016-11-25T13:31:47.639Z,260
2016-11-25T13:32:47.926Z,255
2016-11-25T13:33:47.600Z,250
2016-11-25T13:34:47.603Z,245
2016-11-25T13:35:47.608Z,220
2016-11-25T13:36:47.902Z,185
2016-11-25T13:37:47.585Z,160
2016-11-25T13:38:47.584Z,140
2016-11-25T13:39:48.200Z,125
2016-11-25T13:40:47.566Z,115
2016-11-25T13:41:47.567Z,110
2016-11-25T13:42:47.566Z,105
2016-11-25T13:43:47.575Z,100
2016-11-25T13:44:47.856Z,100
2016-11-25T13:45:47.543Z,100
2016-11-25T13:46:48.173Z,100
2016-11-25T13:47:47.536Z,95
2016-11-25T13:48:48.034Z,95
2016-11-25T13:49:47.517Z,95
2016-11-25T13:50:47.504Z,95
2016-11-25T13:51:47.502Z,90
2016-11-25T13:52:47.494Z,90
2016-11-25T13:53:47.792Z,90
2016-11-25T13:54:47.782Z,90
2016-11-25T13:55:47.465Z,90
2016-11-25T13:56:47.461Z,90
2016-11-25T13:57:47.489Z,90
2016-11-25T13:58:47.439Z,90
2016-11-25T13:59:47.428Z,90
2016-11-25T14:00:47.732Z,90
2016-11-25T14:01:47.394Z,85
2016-11-25T14:02:47.391Z,85
2016-11-25T14:03:47.689Z,85
2016-11-25T14:04:47.998Z,85
2016-11-25T14:05:47.360Z,85
2016-11-25T14:06:47.677Z,85
2016-11-25T14:07:47.333Z,85
2016-11-25T14:08:47.323Z,85
2016-11-25T14:09:47.619Z,80
2016-11-25T14:10:47.608Z,80
2016-11-25T14:11:47.275Z,80
2016-11-25T14:12:47.273Z,80
2016-11-25T14:13:47.251Z,80
2016-11-25T14:14:47.329Z,80
2016-11-25T14:15:47.279Z,80
2016-11-25T14:16:47.572Z,75
2016-11-25T14:17:47.196Z,75
2016-11-25T14:18:47.189Z,75
2016-11-25T14:19:47.820Z,75